Time;durP1;ratioP1;P1;durP2;ratioP2;P2;SDS_P1;SDS_P2;PMS_P1;PMS_P2;Temp;Humidity;BMP_temperature;BMP_pressure;BME280_temperature;BME280_humidity;BME280_pressure;Samples;Min_cycle;Max_cycle;Signal;HPM_P1;HPM_P2
2023/08/24 00:04:28;;;;;;;0.70;0.70;;;;;;;23.37;61.07;96803.69;10450202;28;20090;-29
2023/08/24 00:09:28;;;;;;;0.50;0.50;;;;;;;23.36;61.26;96792.66;10434255;28;20041;-30
2023/08/24 00:14:29;;;;;;;0.70;0.70;;;;;;;23.35;61.26;96785.84;10452003;28;20383;-30
2023/08/24 00:19:29;;;;;;;1.00;0.80;;;;;;;23.39;61.20;96781.53;10419316;28;20487;-29
2023/08/24 00:24:29;;;;;;;0.70;0.70;;;;;;;23.39;61.36;96784.91;10437261;28;20411;-30
2023/08/24 00:29:30;;;;;;;0.90;0.90;;;;;;;23.41;61.19;96780.59;10425302;28;20373;-29
2023/08/24 00:34:30;;;;;;;0.90;0.80;;;;;;;23.39;61.19;96776.41;10446169;28;20483;-29
2023/08/24 00:39:31;;;;;;;0.60;0.60;;;;;;;23.37;60.99;96771.31;10414964;28;20484;-29
2023/08/24 00:44:31;;;;;;;0.65;0.60;;;;;;;23.38;61.44;96757.69;10434990;28;20327;-29
2023/08/24 00:49:32;;;;;;;0.60;0.60;;;;;;;23.40;61.18;96750.81;10431008;28;20452;-30
2023/08/24 00:54:32;;;;;;;0.82;0.82;;;;;;;23.39;61.16;96746.56;10433103;28;20084;-30
2023/08/24 00:59:34;;;;;;;0.75;0.75;;;;;;;23.39;61.22;96733.81;10440135;28;20407;-30
2023/08/24 01:04:34;;;;;;;1.10;1.00;;;;;;;23.40;61.31;96734.66;10431524;28;20037;-29
2023/08/24 01:09:36;;;;;;;0.90;0.90;;;;;;;23.40;61.07;96730.38;10434004;28;20082;-30
2023/08/24 01:15:03;;;;;;;1.00;0.75;;;;;;;23.43;61.29;96732.03;10422254;28;20025;-30
2023/08/24 01:20:06;;;;;;;0.77;0.77;;;;;;;23.42;61.40;96720.97;10427126;28;20040;-30
2023/08/24 01:25:15;;;;;;;0.90;0.90;;;;;;;23.38;61.25;96709.13;10445533;28;20036;-29
2023/08/24 01:30:17;;;;;;;0.90;0.90;;;;;;;23.44;61.45;96703.91;10418247;28;20030;-30
2023/08/24 01:35:17;;;;;;;0.70;0.70;;;;;;;23.39;61.30;96692.91;10426437;28;20377;-30
2023/08/24 01:40:30;;;;;;;0.80;0.80;;;;;;;23.40;61.13;96688.66;10414016;28;20032;-30
2023/08/24 01:45:32;;;;;;;0.80;0.80;;;;;;;23.42;61.55;96687.75;10428437;28;20287;-30
2023/08/24 01:50:33;;;;;;;0.77;0.77;;;;;;;23.41;61.26;96678.41;10421311;28;20108;-30
2023/08/24 01:55:33;;;;;;;0.80;0.80;;;;;;;23.41;61.29;96688.63;10431369;28;20036;-30
2023/08/24 02:00:34;;;;;;;0.93;0.90;;;;;;;23.41;61.14;96693.72;10440761;28;20040;-30
2023/08/24 02:05:34;;;;;;;0.70;0.70;;;;;;;23.39;61.10;96682.69;10424653;28;20029;-29
2023/08/24 02:10:35;;;;;;;0.83;0.83;;;;;;;23.39;60.95;96675.03;10433220;28;20040;-30
2023/08/24 02:15:37;;;;;;;0.90;0.90;;;;;;;23.38;61.02;96677.59;10426485;28;20287;-30
2023/08/24 02:20:38;;;;;;;0.52;0.52;;;;;;;23.38;61.14;96673.34;10442479;28;20029;-30
2023/08/24 02:25:42;;;;;;;0.60;0.60;;;;;;;23.40;61.13;96676.72;10413688;28;20392;-29
2023/08/24 02:30:43;;;;;;;0.80;0.80;;;;;;;23.39;61.22;96682.69;10433962;28;20398;-29
2023/08/24 02:35:44;;;;;;;0.67;0.67;;;;;;;23.38;61.12;96681.03;10437883;28;20110;-30
2023/08/24 02:40:45;;;;;;;0.68;0.68;;;;;;;23.37;61.29;96681.91;10426481;28;20045;-30
2023/08/24 02:45:45;;;;;;;0.50;0.50;;;;;;;23.39;61.10;96675.03;10439828;28;20029;-30
2023/08/24 02:50:47;;;;;;;0.70;0.70;;;;;;;23.39;61.02;96674.22;10425272;28;20479;-30
2023/08/24 02:55:49;;;;;;;0.70;0.70;;;;;;;23.38;61.19;96675.91;10434438;28;20047;-30
2023/08/24 03:00:49;;;;;;;0.45;0.45;;;;;;;23.39;61.12;96680.16;10447714;28;20411;-29
2023/08/24 03:05:58;;;;;;;0.70;0.70;;;;;;;23.38;61.05;96660.56;10429825;28;20403;-30
2023/08/24 03:10:59;;;;;;;0.82;0.75;;;;;;;23.37;61.04;96655.50;10448100;28;20033;-29
2023/08/24 03:16:03;;;;;;;0.60;0.60;;;;;;;23.34;61.34;96640.22;10421367;28;20053;-29
2023/08/24 03:21:04;;;;;;;1.23;0.80;;;;;;;23.38;61.22;96640.13;10429755;28;20036;-30
2023/08/24 03:26:07;;;;;;;0.70;0.70;;;;;;;23.38;61.04;96627.34;10422601;28;20079;-30
2023/08/24 03:31:07;;;;;;;0.70;0.70;;;;;;;23.39;61.09;96633.31;10430405;28;20451;-30
2023/08/24 03:36:08;;;;;;;0.60;0.60;;;;;;;23.38;61.15;96632.47;10447862;28;20059;-30
2023/08/24 03:41:08;;;;;;;0.50;0.50;;;;;;;23.38;61.13;96629.91;10406282;28;20102;-29
2023/08/24 03:46:08;;;;;;;0.60;0.60;;;;;;;23.38;61.12;96627.34;10447024;28;20049;-31
2023/08/24 03:51:09;;;;;;;0.70;0.70;;;;;;;23.38;60.87;96629.06;10439097;28;20037;-30
2023/08/24 03:56:10;;;;;;;0.70;0.70;;;;;;;23.38;60.91;96619.69;10437361;28;20038;-29
2023/08/24 04:01:11;;;;;;;0.70;0.70;;;;;;;23.32;61.03;96604.47;10438144;28;20522;-29
2023/08/24 04:06:12;;;;;;;0.60;0.60;;;;;;;23.39;61.00;96623.94;10432914;28;20285;-30
2023/08/24 04:11:12;;;;;;;0.70;0.70;;;;;;;23.37;60.95;96610.34;10416096;28;20041;-30
2023/08/24 04:16:12;;;;;;;0.70;0.70;;;;;;;23.39;61.08;96608.59;10413258;28;20284;-30
2023/08/24 04:21:13;;;;;;;0.70;0.70;;;;;;;23.39;60.87;96597.56;10410109;28;20639;-30
2023/08/24 04:26:13;;;;;;;0.70;0.67;;;;;;;23.40;60.99;96600.06;10406388;28;20120;-30
2023/08/24 04:31:14;;;;;;;1.10;1.00;;;;;;;23.40;61.05;96589.84;10412494;28;20029;-30
2023/08/24 04:36:15;;;;;;;0.70;0.70;;;;;;;23.40;61.04;96583.91;10409919;28;20044;-30
2023/08/24 04:41:15;;;;;;;0.60;0.60;;;;;;;23.40;60.92;96581.34;10412308;28;20049;-30
2023/08/24 04:46:16;;;;;;;0.70;0.70;;;;;;;23.40;61.03;96589.84;10410569;28;20438;-29
2023/08/24 04:51:18;;;;;;;0.60;0.60;;;;;;;23.41;61.04;96586.41;10403518;28;20477;-30
2023/08/24 04:56:19;;;;;;;0.65;0.60;;;;;;;23.41;61.04;96598.34;10419858;28;20484;-30
2023/08/24 05:01:19;;;;;;;0.90;0.90;;;;;;;23.36;61.02;96588.22;10409118;28;20037;-29
2023/08/24 05:06:21;;;;;;;0.60;0.60;;;;;;;23.39;61.19;96593.25;10411212;28;20044;-29
2023/08/24 05:11:29;;;;;;;0.60;0.60;;;;;;;23.40;60.96;96599.22;10404901;28;20090;-30
2023/08/24 05:16:29;;;;;;;0.70;0.70;;;;;;;23.39;61.00;96603.47;10403603;28;20676;-30
2023/08/24 05:21:30;;;;;;;0.60;0.60;;;;;;;23.41;61.07;96613.69;10410153;28;20052;-30
2023/08/24 05:26:30;;;;;;;0.88;0.80;;;;;;;23.39;60.99;96606.03;10402389;28;20052;-30
2023/08/24 05:31:31;;;;;;;0.68;0.68;;;;;;;23.41;61.13;96606.84;10410296;28;20510;-30
2023/08/24 05:36:31;;;;;;;0.80;0.70;;;;;;;23.41;61.03;96611.13;10406142;28;20323;-30
2023/08/24 05:41:32;;;;;;;0.80;0.80;;;;;;;23.41;61.06;96617.06;10409592;28;20124;-30
2023/08/24 05:46:32;;;;;;;0.90;0.90;;;;;;;23.40;60.99;96614.56;10401555;28;20044;-29
2023/08/24 05:51:32;;;;;;;0.75;0.75;;;;;;;23.39;61.25;96608.59;10409361;28;20111;-30
2023/08/24 05:56:33;;;;;;;0.67;0.67;;;;;;;23.40;61.07;96605.16;10401072;28;20033;-29
2023/08/24 06:01:33;;;;;;;0.70;0.70;;;;;;;23.40;61.07;96619.66;10402688;28;20037;-30
2023/08/24 06:06:34;;;;;;;0.73;0.73;;;;;;;23.40;61.03;96630.72;10409222;28;20038;-29
2023/08/24 06:11:35;;;;;;;0.70;0.70;;;;;;;23.41;60.97;96621.34;10402596;28;20491;-30
2023/08/24 06:16:36;;;;;;;0.70;0.70;;;;;;;23.40;60.99;96625.59;10409272;28;20033;-30
2023/08/24 06:21:36;;;;;;;0.70;0.70;;;;;;;23.41;61.08;96632.41;10404973;28;20037;-28
2023/08/24 06:26:36;;;;;;;0.80;0.80;;;;;;;23.40;61.03;96635.81;10407898;28;20083;-29
2023/08/24 06:31:37;;;;;;;0.77;0.77;;;;;;;23.41;60.88;96642.63;10422697;28;20113;-29
2023/08/24 06:36:37;;;;;;;0.60;0.60;;;;;;;23.41;60.90;96650.28;10413811;28;20396;-30
2023/08/24 06:41:37;;;;;;;0.60;0.60;;;;;;;23.41;60.93;96655.41;10422489;28;20112;-30
2023/08/24 06:46:41;;;;;;;0.70;0.70;;;;;;;23.41;61.08;96655.41;10417150;28;20036;-30
2023/08/24 06:51:41;;;;;;;0.95;0.90;;;;;;;23.41;60.86;96657.94;10419038;28;20424;-30
2023/08/24 06:56:43;;;;;;;0.83;0.83;;;;;;;23.41;61.13;96657.94;10430025;28;20041;-29
2023/08/24 07:01:43;;;;;;;0.80;0.80;;;;;;;23.40;60.90;96653.72;10416927;28;20041;-29
2023/08/24 07:06:44;;;;;;;0.60;0.60;;;;;;;23.41;60.99;96649.47;10421879;28;20060;-30
2023/08/24 07:11:46;;;;;;;0.80;0.80;;;;;;;23.40;61.11;96647.78;10414261;28;20083;-29
2023/08/24 07:16:47;;;;;;;0.55;0.55;;;;;;;23.41;60.91;96654.56;10421264;28;20495;-30
2023/08/24 07:21:47;;;;;;;0.88;0.80;;;;;;;23.41;61.12;96660.50;10417310;28;20116;-31
2023/08/24 07:26:47;;;;;;;0.80;0.80;;;;;;;23.41;60.85;96655.41;10415622;28;20099;-29
2023/08/24 07:31:48;;;;;;;0.90;0.80;;;;;;;23.41;61.07;96654.56;10421419;28;20029;-29
2023/08/24 07:36:50;;;;;;;1.03;0.93;;;;;;;23.41;61.03;96649.47;10413055;28;20033;-31
2023/08/24 07:41:50;;;;;;;0.68;0.68;;;;;;;23.41;60.79;96647.72;10411469;28;20052;-30
2023/08/24 07:46:50;;;;;;;0.90;0.90;;;;;;;23.39;60.88;96644.38;10410217;28;20098;-30
2023/08/24 07:51:51;;;;;;;1.05;0.95;;;;;;;23.41;61.06;96647.72;10410394;28;20068;-29
2023/08/24 07:56:51;;;;;;;0.70;0.70;;;;;;;23.41;60.92;96647.72;10409926;28;20067;-30
2023/08/24 08:01:52;;;;;;;0.67;0.67;;;;;;;23.42;60.92;96649.41;10411682;28;20030;-30
2023/08/24 08:06:53;;;;;;;0.70;0.70;;;;;;;23.43;61.04;96655.38;10413670;28;20029;-29
2023/08/24 08:11:53;;;;;;;0.65;0.65;;;;;;;23.44;61.02;96668.13;10407214;28;20112;-29
2023/08/24 08:16:53;;;;;;;0.90;0.90;;;;;;;23.37;60.85;96646.13;10411661;28;20041;-29
2023/08/24 08:21:54;;;;;;;1.00;0.90;;;;;;;23.42;61.04;96657.06;10413242;28;20033;-29
2023/08/24 08:26:54;;;;;;;1.00;0.90;;;;;;;23.41;60.97;96650.28;10408852;28;20033;-29
2023/08/24 08:31:55;;;;;;;0.60;0.60;;;;;;;23.41;60.92;96650.28;10420071;28;20030;-30
2023/08/24 08:36:55;;;;;;;0.70;0.70;;;;;;;23.38;60.91;96632.47;10408367;28;20276;-30
2023/08/24 08:41:55;;;;;;;0.70;0.70;;;;;;;23.41;61.00;96631.56;10421584;28;20290;-30
2023/08/24 08:46:57;;;;;;;0.80;0.80;;;;;;;23.40;61.04;96625.59;10416138;28;20395;-29
2023/08/24 08:51:57;;;;;;;0.80;0.80;;;;;;;23.42;61.03;96634.06;10410527;28;20395;-29
2023/08/24 08:56:59;;;;;;;0.60;0.60;;;;;;;23.38;61.05;96627.34;10411890;28;20031;-29
2023/08/24 09:02:01;;;;;;;0.70;0.70;;;;;;;23.42;60.99;96634.06;10406269;28;20021;-30
2023/08/24 09:07:07;;;;;;;0.77;0.77;;;;;;;23.42;61.06;96623.84;10409480;28;20492;-30
2023/08/24 09:12:08;;;;;;;0.70;0.70;;;;;;;23.43;61.04;96615.34;10407961;28;20040;-31
2023/08/24 09:17:09;;;;;;;0.70;0.70;;;;;;;23.43;60.99;96610.22;10406118;28;20381;-30
2023/08/24 09:22:09;;;;;;;0.60;0.60;;;;;;;23.44;61.02;96604.25;10408050;28;20506;-30
2023/08/24 09:27:19;;;;;;;0.80;0.80;;;;;;;23.45;60.94;96597.41;10403262;28;20086;-31
2023/08/24 09:32:23;;;;;;;0.77;0.77;;;;;;;23.45;61.21;96593.16;10411002;28;20029;-29
2023/08/24 09:37:24;;;;;;;0.70;0.70;;;;;;;23.45;60.92;96588.03;10405089;28;20030;-29
2023/08/24 09:42:25;;;;;;;0.77;0.77;;;;;;;23.46;61.24;96579.50;10406223;28;20091;-29
2023/08/24 09:47:26;;;;;;;0.68;0.68;;;;;;;23.46;61.65;96568.41;10418504;28;20040;-30
2023/08/24 09:52:31;;;;;;;0.90;0.90;;;;;;;23.46;61.02;96556.50;10409181;28;20060;-30
2023/08/24 09:57:37;;;;;;;0.97;0.90;;;;;;;23.47;60.95;96547.09;10409354;28;20069;-30
2023/08/24 10:02:49;;;;;;;0.95;0.95;;;;;;;23.46;60.89;96528.38;10404934;28;20137;-30
2023/08/24 10:07:56;;;;;;;1.33;1.23;;;;;;;23.46;60.98;96518.16;10404575;28;20041;-30
2023/08/24 10:13:00;;;;;;;0.98;0.90;;;;;;;23.46;61.22;96515.59;10408768;28;20056;-30
2023/08/24 10:18:01;;;;;;;0.60;0.60;;;;;;;23.47;61.51;96513.88;10402331;28;20034;-30
2023/08/24 10:23:02;;;;;;;0.88;0.88;;;;;;;23.47;61.27;96504.50;10408843;28;20038;-29
2023/08/24 10:28:04;;;;;;;0.77;0.77;;;;;;;23.47;61.08;96494.28;10406838;28;20041;-30
2023/08/24 10:33:06;;;;;;;0.90;0.90;;;;;;;23.48;61.20;96487.47;10406784;28;20040;-29
2023/08/24 10:38:06;;;;;;;0.90;0.90;;;;;;;23.49;61.33;96497.63;10408391;28;20055;-31
2023/08/24 10:43:07;;;;;;;0.93;0.90;;;;;;;23.49;61.13;96497.63;10405306;28;20036;-29
2023/08/24 10:48:11;;;;;;;1.15;1.05;;;;;;;23.49;61.19;96495.06;10408403;28;20036;-30
2023/08/24 10:53:38;;;;;;;0.65;0.65;;;;;;;23.49;61.01;96487.41;10404704;28;20029;-30
2023/08/24 10:58:38;;;;;;;;;;;;;;;23.50;60.87;96483.97;10408650;28;20042;-30
2023/08/24 11:03:40;;;;;;;0.88;0.88;;;;;;;23.48;61.17;96483.19;10400295;28;19925;-30
2023/08/24 11:08:47;;;;;;;1.15;1.10;;;;;;;23.49;61.38;96476.38;10402118;28;20042;-30
2023/08/24 11:14:17;;;;;;;0.90;0.90;;;;;;;23.50;61.17;96472.94;10410225;28;20068;-30
2023/08/24 11:19:17;;;;;;;0.90;0.85;;;;;;;23.49;61.27;96472.06;10408127;28;20029;-29
2023/08/24 11:24:18;;;;;;;0.88;0.88;;;;;;;23.50;61.11;96462.72;10414946;28;20563;-29
2023/08/24 11:29:18;;;;;;;1.43;0.80;;;;;;;23.45;61.17;96456.84;10412676;28;20041;-30
2023/08/24 11:34:19;;;;;;;0.90;0.90;;;;;;;23.49;61.20;96456.75;10414456;28;20149;-30
2023/08/24 11:39:23;;;;;;;0.80;0.80;;;;;;;23.51;61.53;96455.03;10412039;28;20033;-30
2023/08/24 11:44:24;;;;;;;0.95;0.95;;;;;;;23.52;61.55;96456.69;10407607;28;20120;-30
2023/08/24 11:49:24;;;;;;;1.20;1.10;;;;;;;23.52;61.30;96456.69;10414413;28;20594;-29
2023/08/24 11:54:27;;;;;;;0.90;0.90;;;;;;;23.53;61.45;96452.41;10405995;28;20296;-30
2023/08/24 11:59:28;;;;;;;0.98;0.95;;;;;;;23.53;61.63;96448.16;10413901;28;20037;-30
2023/08/24 12:04:28;;;;;;;0.93;0.90;;;;;;;23.53;61.58;96443.03;10411992;28;20232;-29
2023/08/24 12:09:29;;;;;;;1.17;1.07;;;;;;;23.54;61.53;96441.31;10413289;28;20087;-30
2023/08/24 12:14:40;;;;;;;0.82;0.82;;;;;;;23.54;61.80;96425.97;10408657;28;20036;-30
2023/08/24 12:19:43;;;;;;;0.98;0.98;;;;;;;23.54;61.68;96425.97;10413332;28;20049;-29
2023/08/24 12:24:48;;;;;;;0.95;0.95;;;;;;;23.55;61.43;96415.72;10404318;28;20465;-29
2023/08/24 12:29:48;;;;;;;0.85;0.85;;;;;;;23.55;61.79;96410.59;10400280;28;20034;-29
2023/08/24 12:34:51;;;;;;;1.15;1.02;;;;;;;23.56;61.75;96396.94;10412428;28;20075;-29
2023/08/24 12:39:53;;;;;;;1.50;1.30;;;;;;;23.56;61.93;96386.72;10406951;28;20029;-29
2023/08/24 12:44:55;;;;;;;1.23;1.13;;;;;;;23.54;61.40;96387.63;10412024;28;20026;-31
2023/08/24 12:49:55;;;;;;;0.90;0.90;;;;;;;23.52;61.48;96384.28;10418806;28;20103;-30
2023/08/24 12:54:55;;;;;;;0.77;0.77;;;;;;;23.52;61.30;96362.13;10409568;28;20068;-30
2023/08/24 12:59:56;;;;;;;1.20;1.10;;;;;;;23.54;61.63;96351.84;10411630;28;20036;-30
2023/08/24 13:05:00;;;;;;;1.33;1.23;;;;;;;23.54;61.92;96349.31;10405520;28;20030;-30
2023/08/24 13:10:01;;;;;;;1.98;1.13;;;;;;;23.53;61.48;96330.59;10409537;28;20363;-30
2023/08/24 13:15:02;;;;;;;1.98;1.33;;;;;;;23.56;61.63;96325.38;10404324;28;20025;-29
2023/08/24 13:20:04;;;;;;;2.00;1.35;;;;;;;23.57;61.74;96321.94;10403383;28;20128;-30
2023/08/24 13:25:05;;;;;;;1.70;1.60;;;;;;;23.55;61.63;96305.81;10410320;28;20051;-36
2023/08/24 13:30:06;;;;;;;3.35;1.70;;;;;;;23.56;61.65;96287.06;10408025;28;20120;-31
2023/08/24 13:35:08;;;;;;;1.98;1.83;;;;;;;23.56;61.71;96270.91;10409679;28;20033;-30
2023/08/24 13:40:09;;;;;;;1.80;1.63;;;;;;;23.56;61.58;96264.06;10405258;28;20044;-30
2023/08/24 13:45:10;;;;;;;4.80;2.25;;;;;;;23.56;61.82;96248.72;10409688;28;20132;-29
2023/08/24 13:50:10;;;;;;;2.15;1.77;;;;;;;23.51;61.96;96227.59;10403728;28;20041;-35
2023/08/24 13:55:10;;;;;;;2.42;2.10;;;;;;;23.57;61.85;96224.84;10409512;28;20837;-29
2023/08/24 14:00:11;;;;;;;1.97;1.87;;;;;;;23.58;61.76;96231.63;10401674;28;20037;-30
2023/08/24 14:05:15;;;;;;;1.92;1.83;;;;;;;23.59;62.54;96240.13;10405105;28;20300;-30
2023/08/24 14:10:15;;;;;;;2.20;2.00;;;;;;;23.60;62.06;96235.00;10408644;28;20033;-30
2023/08/24 14:15:16;;;;;;;3.22;2.33;;;;;;;23.60;62.32;96229.88;10402646;28;20120;-30
2023/08/24 14:20:16;;;;;;;3.03;2.20;;;;;;;23.60;62.32;96234.13;10409068;28;20032;-29
2023/08/24 14:25:17;;;;;;;3.03;2.50;;;;;;;23.61;62.14;96225.59;10405620;28;20033;-29
2023/08/24 14:30:17;;;;;;;2.85;2.58;;;;;;;23.61;62.35;96221.31;10408694;28;20037;-30
2023/08/24 14:35:17;;;;;;;2.53;2.00;;;;;;;23.61;62.42;96221.31;10401326;28;20053;-29
2023/08/24 14:40:19;;;;;;;2.65;2.42;;;;;;;23.61;62.34;96225.59;10408426;28;20033;-30
2023/08/24 14:45:20;;;;;;;4.20;2.33;;;;;;;23.62;62.32;96228.09;10405535;28;20038;-30
2023/08/24 14:50:20;;;;;;;2.70;2.42;;;;;;;23.62;62.31;96228.09;10415866;28;20033;-30
2023/08/24 14:55:21;;;;;;;2.30;2.10;;;;;;;23.63;62.60;96229.78;10412868;28;20038;-31
2023/08/24 15:00:21;;;;;;;3.13;2.23;;;;;;;23.64;62.85;96236.56;10416126;28;20040;-30
2023/08/24 15:05:22;;;;;;;2.60;2.37;;;;;;;23.64;63.28;96228.91;10411292;28;20033;-30
2023/08/24 15:10:22;;;;;;;2.58;2.30;;;;;;;23.64;63.05;96246.78;10414067;28;20124;-29
2023/08/24 15:15:23;;;;;;;2.38;2.17;;;;;;;23.65;63.01;96250.19;10415208;28;20065;-29
2023/08/24 15:20:23;;;;;;;5.73;2.67;;;;;;;23.60;62.61;96244.34;10408410;28;20040;-29
2023/08/24 15:25:24;;;;;;;3.05;2.42;;;;;;;23.64;62.52;96257.00;10415312;28;20041;-30
2023/08/24 15:30:24;;;;;;;4.13;2.63;;;;;;;23.57;62.44;96250.38;10421082;28;20037;-29
2023/08/24 15:35:25;;;;;;;2.60;2.40;;;;;;;23.62;62.32;96266.44;10410179;28;20042;-30
2023/08/24 15:40:31;;;;;;;2.87;2.30;;;;;;;23.63;62.39;96269.81;10423310;28;20037;-29
2023/08/24 15:45:32;;;;;;;2.47;2.22;;;;;;;23.62;62.31;96279.22;10405613;28;20332;-30
2023/08/24 15:50:33;;;;;;;2.83;2.55;;;;;;;23.62;62.19;96279.22;10414311;28;20040;-30
2023/08/24 15:55:33;;;;;;;4.63;2.80;;;;;;;23.62;62.11;96279.22;10411505;28;20040;-30
2023/08/24 16:00:33;;;;;;;2.53;2.17;;;;;;;23.63;62.19;96296.22;10413257;28;20050;-30
2023/08/24 16:05:34;;;;;;;2.17;2.07;;;;;;;23.59;61.86;96278.47;10420433;28;20048;-29
2023/08/24 16:10:35;;;;;;;4.13;2.30;;;;;;;23.61;62.12;96295.44;10410664;28;20070;-29
2023/08/24 16:15:35;;;;;;;2.45;2.15;;;;;;;23.58;62.08;96287.03;10413153;28;20053;-30
2023/08/24 16:20:36;;;;;;;2.43;2.23;;;;;;;23.63;61.90;96301.34;10407504;28;20072;-30
2023/08/24 16:25:36;;;;;;;2.37;2.17;;;;;;;23.62;62.11;96297.13;10412879;28;20044;-30
2023/08/24 16:30:37;;;;;;;2.37;2.17;;;;;;;23.60;62.10;96296.34;10407802;28;20072;-30
2023/08/24 16:35:37;;;;;;;3.40;1.92;;;;;;;23.62;62.17;96273.25;10406816;28;20060;-29
2023/08/24 16:40:38;;;;;;;1.80;1.70;;;;;;;23.62;62.06;96260.47;10412859;28;20041;-30
2023/08/24 16:45:38;;;;;;;2.53;2.25;;;;;;;23.61;62.28;96286.94;10404021;28;20033;-30
2023/08/24 16:50:39;;;;;;;1.67;1.58;;;;;;;23.62;62.04;96293.72;10411358;28;20022;-30
2023/08/24 16:55:39;;;;;;;2.07;1.87;;;;;;;23.63;61.96;96311.56;10408312;28;20021;-29
2023/08/24 17:00:39;;;;;;;1.80;1.70;;;;;;;23.63;61.96;96315.84;10407176;28;20037;-29
2023/08/24 17:05:40;;;;;;;2.38;2.17;;;;;;;23.61;61.87;96292.88;10411234;28;20033;-29
2023/08/24 17:10:40;;;;;;;1.70;1.47;;;;;;;23.62;62.05;96320.13;10403708;28;20508;-29
2023/08/24 17:15:41;;;;;;;1.50;1.40;;;;;;;23.62;61.95;96332.91;10411077;28;20503;-30
2023/08/24 17:20:41;;;;;;;2.10;1.90;;;;;;;23.62;61.96;96366.13;10409137;28;20384;-29
2023/08/24 17:25:44;;;;;;;2.00;1.67;;;;;;;23.62;62.00;96386.56;10410734;28;20502;-30
2023/08/24 17:30:46;;;;;;;1.77;1.67;;;;;;;23.62;62.03;96396.81;10404010;28;20312;-30
2023/08/24 17:35:48;;;;;;;2.15;1.70;;;;;;;23.62;62.05;96340.56;10403810;28;20403;-30
2023/08/24 17:40:48;;;;;;;1.90;1.80;;;;;;;23.62;62.25;96281.78;10409958;28;20483;-30
2023/08/24 17:45:48;;;;;;;1.93;1.83;;;;;;;23.62;62.24;96281.78;10401134;28;20037;-29
2023/08/24 17:50:53;;;;;;;2.00;1.67;;;;;;;23.63;61.80;96349.06;10418108;28;20144;-30
2023/08/24 17:55:54;;;;;;;1.88;1.77;;;;;;;23.65;62.49;96482.81;10408059;28;20476;-33
2023/08/24 18:00:55;;;;;;;2.40;2.20;;;;;;;23.76;67.26;96752.66;10417676;28;20045;-29
2023/08/24 18:05:55;;;;;;;2.40;2.20;;;;;;;23.82;68.25;97059.38;10403676;28;20079;-30
2023/08/24 18:11:03;;;;;;;2.30;2.10;;;;;;;23.72;63.25;96996.50;10407012;28;20091;-29
2023/08/24 18:16:03;;;;;;;2.00;1.88;;;;;;;23.66;62.42;96981.25;10425576;28;20033;-30
2023/08/24 18:21:04;;;;;;;1.23;1.13;;;;;;;23.58;61.67;96870.59;10412324;28;20091;-29
2023/08/24 18:26:04;;;;;;;1.02;0.93;;;;;;;23.56;61.74;96840.84;10440793;28;20037;-29
2023/08/24 18:31:04;;;;;;;1.20;1.03;;;;;;;23.57;61.84;96868.91;10418400;28;20519;-28
2023/08/24 18:36:05;;;;;;;1.20;1.10;;;;;;;23.55;61.57;96824.66;10402216;28;20373;-29
2023/08/24 18:41:05;;;;;;;1.20;1.10;;;;;;;23.55;61.54;96852.78;10432603;28;20494;-29
2023/08/24 18:46:06;;;;;;;1.20;0.93;;;;;;;23.52;61.41;96753.16;10421969;28;20487;-29
2023/08/24 18:51:06;;;;;;;1.30;0.90;;;;;;;23.53;61.55;96725.88;10434570;28;20284;-29
2023/08/24 18:56:06;;;;;;;0.70;0.70;;;;;;;23.51;61.44;96667.13;10409769;28;20037;-32
2023/08/24 19:01:14;;;;;;;1.50;0.93;;;;;;;23.51;61.64;96623.69;10423243;28;20064;-29
2023/08/24 19:06:14;;;;;;;2.03;1.30;;;;;;;23.53;61.33;96604.03;10408316;28;20033;-29
2023/08/24 19:11:14;;;;;;;1.90;1.17;;;;;;;23.54;61.55;96610.84;10430480;28;20053;-29
2023/08/24 19:16:17;;;;;;;1.37;0.93;;;;;;;23.53;61.60;96580.19;10432007;28;20036;-30
2023/08/24 19:21:18;;;;;;;1.15;0.95;;;;;;;23.52;61.32;96543.59;10420484;28;20069;-32
2023/08/24 19:26:18;;;;;;;1.87;1.23;;;;;;;23.52;61.27;96527.41;10432283;28;20072;-30
2023/08/24 19:31:19;;;;;;;1.27;1.10;;;;;;;23.54;61.38;96577.59;10411923;28;20298;-30
2023/08/24 19:36:19;;;;;;;1.40;1.30;;;;;;;23.54;61.37;96586.97;10445759;28;20097;-30
2023/08/24 19:41:19;;;;;;;1.10;1.00;;;;;;;23.53;61.38;96588.72;10420323;28;20374;-30
2023/08/24 19:46:20;;;;;;;1.10;0.90;;;;;;;23.52;61.40;96584.47;10422705;28;20037;-32
2023/08/24 19:51:21;;;;;;;1.27;1.13;;;;;;;23.52;61.41;96569.13;10431152;28;20037;-30
2023/08/24 19:56:23;;;;;;;1.35;0.93;;;;;;;23.53;61.22;96578.50;10424360;28;20036;-30
2023/08/24 20:01:23;;;;;;;2.05;1.23;;;;;;;23.52;61.37;96574.25;10422034;28;20457;-30
2023/08/24 20:06:25;;;;;;;1.40;1.30;;;;;;;23.52;61.39;96540.19;10416147;28;20049;-29
2023/08/24 20:11:31;;;;;;;0.98;0.75;;;;;;;23.51;61.23;96503.56;10421763;28;20401;-29
2023/08/24 20:16:31;;;;;;;1.00;0.90;;;;;;;23.52;61.31;96505.25;10413331;28;20033;-30
2023/08/24 20:21:32;;;;;;;0.80;0.80;;;;;;;23.52;61.33;96489.91;10416059;28;20096;-29
2023/08/24 20:26:33;;;;;;;1.25;1.15;;;;;;;23.51;61.38;96475.47;10429688;28;20110;-30
2023/08/24 20:31:33;;;;;;;0.77;0.70;;;;;;;23.51;61.21;96466.94;10410525;28;20096;-29
2023/08/24 20:36:34;;;;;;;0.65;0.65;;;;;;;23.51;61.29;96472.06;10445493;28;20397;-30
2023/08/24 20:41:34;;;;;;;0.67;0.67;;;;;;;23.53;61.41;96516.28;10426273;28;20044;-30
2023/08/24 20:46:34;;;;;;;0.90;0.90;;;;;;;23.54;61.39;96581.88;10430729;28;20040;-29
2023/08/24 20:51:35;;;;;;;1.20;1.10;;;;;;;23.53;61.34;96577.63;10436897;28;20773;-30
2023/08/24 20:56:35;;;;;;;1.30;1.20;;;;;;;23.54;61.46;96620.19;10425754;28;20345;-29
2023/08/24 21:01:36;;;;;;;0.93;0.93;;;;;;;23.50;61.23;96591.31;10421058;28;20037;-29
2023/08/24 21:06:36;;;;;;;0.90;0.90;;;;;;;23.53;61.72;96604.03;10440112;28;20309;-29
2023/08/24 21:11:36;;;;;;;1.03;1.00;;;;;;;23.51;61.25;96587.91;10419307;28;20305;-30
2023/08/24 21:16:37;;;;;;;0.70;0.70;;;;;;;23.49;61.25;96553.03;10405727;28;20311;-30
2023/08/24 21:21:37;;;;;;;1.07;0.50;;;;;;;23.49;61.29;96497.63;10434196;28;20095;-30
2023/08/24 21:26:38;;;;;;;1.08;1.00;;;;;;;23.50;61.25;96478.88;10412016;28;20312;-29
2023/08/24 21:31:38;;;;;;;0.60;0.60;;;;;;;23.50;61.19;96458.41;10426017;28;20476;-30
2023/08/24 21:36:38;;;;;;;0.73;0.60;;;;;;;23.51;61.12;96461.84;10403913;28;20044;-30
2023/08/24 21:41:39;;;;;;;1.00;0.57;;;;;;;23.51;61.24;96465.25;10420022;28;20080;-29
2023/08/24 21:46:39;;;;;;;0.70;0.70;;;;;;;23.53;61.03;96523.97;10426576;28;20763;-29
2023/08/24 21:51:40;;;;;;;1.27;1.10;;;;;;;23.55;61.28;96607.41;10425328;28;20029;-29
2023/08/24 21:56:40;;;;;;;0.80;0.80;;;;;;;23.51;61.13;96525.72;10442011;28;20384;-30
2023/08/24 22:01:40;;;;;;;0.40;0.40;;;;;;;23.45;61.21;96496.03;10410982;28;20217;-30
2023/08/24 22:06:41;;;;;;;0.63;0.63;;;;;;;23.49;61.09;96458.47;10412640;28;20150;-30
2023/08/24 22:11:42;;;;;;;0.50;0.50;;;;;;;23.49;61.29;96461.84;10417316;28;20041;-29
2023/08/24 22:16:42;;;;;;;0.70;0.60;;;;;;;23.52;61.11;96456.69;10399922;28;20038;-30
2023/08/24 22:21:42;;;;;;;0.90;0.90;;;;;;;23.54;61.17;96490.72;10425416;28;20499;-30
2023/08/24 22:26:43;;;;;;;1.30;1.20;;;;;;;23.53;60.96;96489.03;10423620;28;20399;-31
2023/08/24 22:31:43;;;;;;;1.00;1.00;;;;;;;23.52;60.91;96482.25;10408730;28;20041;-30
2023/08/24 22:36:44;;;;;;;0.95;0.95;;;;;;;23.52;61.27;96477.13;10409911;28;20037;-29
2023/08/24 22:41:44;;;;;;;0.70;0.70;;;;;;;23.51;60.97;96460.13;10434845;28;20042;-29
2023/08/24 22:46:44;;;;;;;0.80;0.80;;;;;;;23.52;61.20;96477.13;10425039;28;20284;-30
2023/08/24 22:51:45;;;;;;;1.02;0.95;;;;;;;23.54;60.89;96494.97;10419542;28;20037;-30
2023/08/24 22:56:45;;;;;;;1.00;0.87;;;;;;;23.52;61.04;96479.69;10424897;28;20041;-30
2023/08/24 23:01:46;;;;;;;0.63;0.63;;;;;;;23.51;61.19;96472.91;10406679;28;20037;-29
2023/08/24 23:07:03;;;;;;;0.60;0.60;;;;;;;23.52;61.16;96472.03;10439514;28;20287;-30
2023/08/24 23:12:04;;;;;;;0.85;0.70;;;;;;;23.52;60.95;96466.91;10411831;28;20028;-30
2023/08/24 23:17:04;;;;;;;0.95;0.85;;;;;;;23.53;61.16;96476.25;10456860;28;20044;-29
2023/08/24 23:22:05;;;;;;;1.05;1.00;;;;;;;23.53;60.90;96488.19;10410583;28;20060;-29